sensor_id;sensor_type;location;lat;lon;timestamp;P1;durP1;ratioP1;P2;durP2;ratioP2
3280;SDS011;1652;51.318;6.202;2023-04-30T00:01:12;11.53;;;9.47;;
3280;SDS011;1652;51.318;6.202;2023-04-30T00:03:38;14.93;;;9.17;;
3280;SDS011;1652;51.318;6.202;2023-04-30T00:06:05;13.17;;;9.27;;
3280;SDS011;1652;51.318;6.202;2023-04-30T00:08:32;13.73;;;9.70;;
3280;SDS011;1652;51.318;6.202;2023-04-30T00:10:59;9.97;;;8.97;;
3280;SDS011;1652;51.318;6.202;2023-04-30T00:13:26;13.83;;;9.70;;
3280;SDS011;1652;51.318;6.202;2023-04-30T00:15:53;20.50;;;10.70;;
3280;SDS011;1652;51.318;6.202;2023-04-30T00:18:20;12.13;;;9.90;;
3280;SDS011;1652;51.318;6.202;2023-04-30T00:20:47;14.40;;;10.00;;
3280;SDS011;1652;51.318;6.202;2023-04-30T00:23:14;11.70;;;9.60;;
3280;SDS011;1652;51.318;6.202;2023-04-30T00:25:40;14.80;;;10.20;;
3280;SDS011;1652;51.318;6.202;2023-04-30T00:28:07;14.47;;;10.10;;
3280;SDS011;1652;51.318;6.202;2023-04-30T00:30:34;13.13;;;10.60;;
3280;SDS011;1652;51.318;6.202;2023-04-30T00:33:01;15.40;;;11.23;;
3280;SDS011;1652;51.318;6.202;2023-04-30T00:35:28;16.87;;;10.37;;
3280;SDS011;1652;51.318;6.202;2023-04-30T00:37:55;19.07;;;10.90;;
3280;SDS011;1652;51.318;6.202;2023-04-30T00:40:21;15.60;;;10.27;;
3280;SDS011;1652;51.318;6.202;2023-04-30T00:42:48;14.53;;;10.70;;
3280;SDS011;1652;51.318;6.202;2023-04-30T00:45:17;14.03;;;10.23;;
3280;SDS011;1652;51.318;6.202;2023-04-30T00:47:47;14.57;;;10.40;;
3280;SDS011;1652;51.318;6.202;2023-04-30T00:50:14;16.97;;;12.10;;
3280;SDS011;1652;51.318;6.202;2023-04-30T00:52:42;19.57;;;12.70;;
3280;SDS011;1652;51.318;6.202;2023-04-30T00:55:12;16.20;;;11.80;;
3280;SDS011;1652;51.318;6.202;2023-04-30T00:57:39;15.20;;;12.97;;
3280;SDS011;1652;51.318;6.202;2023-04-30T01:00:06;21.10;;;12.00;;
3280;SDS011;1652;51.318;6.202;2023-04-30T01:02:37;14.93;;;11.73;;
3280;SDS011;1652;51.318;6.202;2023-04-30T01:05:05;15.40;;;11.73;;
3280;SDS011;1652;51.318;6.202;2023-04-30T01:07:35;17.43;;;12.20;;
3280;SDS011;1652;51.318;6.202;2023-04-30T01:10:06;14.90;;;11.80;;
3280;SDS011;1652;51.318;6.202;2023-04-30T01:12:36;19.30;;;12.57;;
3280;SDS011;1652;51.318;6.202;2023-04-30T01:15:18;16.73;;;12.33;;
3280;SDS011;1652;51.318;6.202;2023-04-30T01:18:05;17.30;;;12.27;;
3280;SDS011;1652;51.318;6.202;2023-04-30T01:29:04;19.67;;;13.50;;
3280;SDS011;1652;51.318;6.202;2023-04-30T01:31:31;20.27;;;12.87;;
3280;SDS011;1652;51.318;6.202;2023-04-30T01:33:58;18.43;;;12.50;;
3280;SDS011;1652;51.318;6.202;2023-04-30T01:42:12;17.50;;;14.00;;
3280;SDS011;1652;51.318;6.202;2023-04-30T01:53:17;19.40;;;14.10;;
3280;SDS011;1652;51.318;6.202;2023-04-30T01:55:50;16.60;;;12.87;;
3280;SDS011;1652;51.318;6.202;2023-04-30T01:58:37;21.63;;;14.70;;
3280;SDS011;1652;51.318;6.202;2023-04-30T02:01:06;22.17;;;14.57;;
3280;SDS011;1652;51.318;6.202;2023-04-30T02:03:33;27.00;;;15.13;;
3280;SDS011;1652;51.318;6.202;2023-04-30T02:06:00;21.90;;;14.67;;
3280;SDS011;1652;51.318;6.202;2023-04-30T02:08:27;27.07;;;14.07;;
3280;SDS011;1652;51.318;6.202;2023-04-30T02:10:53;22.07;;;14.40;;
3280;SDS011;1652;51.318;6.202;2023-04-30T02:13:20;22.50;;;15.73;;
3280;SDS011;1652;51.318;6.202;2023-04-30T02:15:47;23.13;;;15.70;;
3280;SDS011;1652;51.318;6.202;2023-04-30T02:18:14;27.63;;;15.70;;
3280;SDS011;1652;51.318;6.202;2023-04-30T02:20:41;21.93;;;15.83;;
3280;SDS011;1652;51.318;6.202;2023-04-30T02:23:09;29.20;;;17.73;;
3280;SDS011;1652;51.318;6.202;2023-04-30T02:25:36;23.43;;;15.70;;
3280;SDS011;1652;51.318;6.202;2023-04-30T02:28:04;22.47;;;16.30;;
3280;SDS011;1652;51.318;6.202;2023-04-30T02:30:31;20.27;;;15.53;;
3280;SDS011;1652;51.318;6.202;2023-04-30T02:32:58;24.03;;;15.53;;
3280;SDS011;1652;51.318;6.202;2023-04-30T02:35:25;22.43;;;15.33;;
3280;SDS011;1652;51.318;6.202;2023-04-30T02:37:52;22.97;;;16.53;;
3280;SDS011;1652;51.318;6.202;2023-04-30T02:40:19;26.97;;;17.30;;
3280;SDS011;1652;51.318;6.202;2023-04-30T02:42:45;23.73;;;17.20;;
3280;SDS011;1652;51.318;6.202;2023-04-30T02:45:13;23.83;;;15.40;;
3280;SDS011;1652;51.318;6.202;2023-04-30T02:47:40;25.23;;;16.90;;
3280;SDS011;1652;51.318;6.202;2023-04-30T02:50:07;26.83;;;18.73;;
3280;SDS011;1652;51.318;6.202;2023-04-30T02:52:34;30.30;;;18.20;;
3280;SDS011;1652;51.318;6.202;2023-04-30T02:55:01;28.77;;;19.47;;
3280;SDS011;1652;51.318;6.202;2023-04-30T02:57:29;28.43;;;17.00;;
3280;SDS011;1652;51.318;6.202;2023-04-30T03:11:58;26.17;;;17.90;;
3280;SDS011;1652;51.318;6.202;2023-04-30T03:14:25;28.33;;;19.97;;
3280;SDS011;1652;51.318;6.202;2023-04-30T03:16:51;29.83;;;20.60;;
3280;SDS011;1652;51.318;6.202;2023-04-30T03:19:18;26.90;;;19.50;;
3280;SDS011;1652;51.318;6.202;2023-04-30T03:21:50;31.80;;;19.67;;
3280;SDS011;1652;51.318;6.202;2023-04-30T03:24:17;31.83;;;20.17;;
3280;SDS011;1652;51.318;6.202;2023-04-30T03:26:45;27.70;;;19.07;;
3280;SDS011;1652;51.318;6.202;2023-04-30T03:29:12;30.97;;;19.90;;
3280;SDS011;1652;51.318;6.202;2023-04-30T03:31:39;50.00;;;21.23;;
3280;SDS011;1652;51.318;6.202;2023-04-30T03:34:06;31.00;;;19.30;;
3280;SDS011;1652;51.318;6.202;2023-04-30T03:36:33;25.93;;;18.80;;
3280;SDS011;1652;51.318;6.202;2023-04-30T03:39:00;28.83;;;20.10;;
3280;SDS011;1652;51.318;6.202;2023-04-30T03:41:27;26.67;;;18.43;;
3280;SDS011;1652;51.318;6.202;2023-04-30T03:43:54;29.13;;;19.50;;
3280;SDS011;1652;51.318;6.202;2023-04-30T03:46:21;27.37;;;18.63;;
3280;SDS011;1652;51.318;6.202;2023-04-30T03:48:48;38.10;;;20.17;;
3280;SDS011;1652;51.318;6.202;2023-04-30T03:51:15;30.60;;;20.37;;
3280;SDS011;1652;51.318;6.202;2023-04-30T03:53:43;29.13;;;20.20;;
3280;SDS011;1652;51.318;6.202;2023-04-30T03:56:11;32.23;;;20.90;;
3280;SDS011;1652;51.318;6.202;2023-04-30T03:58:38;29.40;;;19.80;;
3280;SDS011;1652;51.318;6.202;2023-04-30T04:01:05;29.77;;;19.70;;
3280;SDS011;1652;51.318;6.202;2023-04-30T04:03:33;32.80;;;21.30;;
3280;SDS011;1652;51.318;6.202;2023-04-30T04:06:01;39.27;;;21.00;;
3280;SDS011;1652;51.318;6.202;2023-04-30T04:08:28;33.50;;;19.57;;
3280;SDS011;1652;51.318;6.202;2023-04-30T04:10:56;25.23;;;18.10;;
3280;SDS011;1652;51.318;6.202;2023-04-30T04:13:24;32.57;;;18.67;;
3280;SDS011;1652;51.318;6.202;2023-04-30T04:15:51;30.13;;;19.10;;
3280;SDS011;1652;51.318;6.202;2023-04-30T04:18:18;27.47;;;18.53;;
3280;SDS011;1652;51.318;6.202;2023-04-30T04:20:45;32.37;;;19.83;;
3280;SDS011;1652;51.318;6.202;2023-04-30T04:23:12;35.00;;;19.10;;
3280;SDS011;1652;51.318;6.202;2023-04-30T04:25:39;25.50;;;18.40;;
3280;SDS011;1652;51.318;6.202;2023-04-30T04:28:07;27.67;;;18.07;;
3280;SDS011;1652;51.318;6.202;2023-04-30T04:30:33;28.97;;;19.10;;
3280;SDS011;1652;51.318;6.202;2023-04-30T04:33:01;33.00;;;18.97;;
3280;SDS011;1652;51.318;6.202;2023-04-30T04:35:29;29.10;;;17.80;;
3280;SDS011;1652;51.318;6.202;2023-04-30T04:37:56;29.97;;;19.83;;
3280;SDS011;1652;51.318;6.202;2023-04-30T04:40:24;33.37;;;21.27;;
3280;SDS011;1652;51.318;6.202;2023-04-30T04:42:51;36.50;;;23.37;;
3280;SDS011;1652;51.318;6.202;2023-04-30T04:45:18;31.37;;;21.90;;
3280;SDS011;1652;51.318;6.202;2023-04-30T04:47:49;31.83;;;21.63;;
3280;SDS011;1652;51.318;6.202;2023-04-30T04:50:16;30.97;;;21.57;;
3280;SDS011;1652;51.318;6.202;2023-04-30T04:52:43;29.40;;;20.80;;
3280;SDS011;1652;51.318;6.202;2023-04-30T04:55:10;32.43;;;19.70;;
3280;SDS011;1652;51.318;6.202;2023-04-30T04:57:37;29.40;;;19.00;;
3280;SDS011;1652;51.318;6.202;2023-04-30T05:00:04;30.50;;;19.67;;
3280;SDS011;1652;51.318;6.202;2023-04-30T05:02:33;24.23;;;17.33;;
3280;SDS011;1652;51.318;6.202;2023-04-30T05:05:00;25.97;;;16.67;;
3280;SDS011;1652;51.318;6.202;2023-04-30T05:07:27;22.40;;;16.73;;
3280;SDS011;1652;51.318;6.202;2023-04-30T05:09:54;22.30;;;15.90;;
3280;SDS011;1652;51.318;6.202;2023-04-30T05:12:21;22.90;;;15.40;;
3280;SDS011;1652;51.318;6.202;2023-04-30T05:14:48;22.97;;;14.90;;
3280;SDS011;1652;51.318;6.202;2023-04-30T05:17:16;21.40;;;15.37;;
3280;SDS011;1652;51.318;6.202;2023-04-30T05:19:43;20.60;;;15.30;;
3280;SDS011;1652;51.318;6.202;2023-04-30T05:22:12;21.30;;;15.10;;
3280;SDS011;1652;51.318;6.202;2023-04-30T05:24:39;20.77;;;15.13;;
3280;SDS011;1652;51.318;6.202;2023-04-30T05:27:07;18.80;;;12.87;;
3280;SDS011;1652;51.318;6.202;2023-04-30T05:29:34;17.60;;;12.47;;
3280;SDS011;1652;51.318;6.202;2023-04-30T05:32:01;20.00;;;11.63;;
3280;SDS011;1652;51.318;6.202;2023-04-30T05:34:28;12.43;;;9.27;;
3280;SDS011;1652;51.318;6.202;2023-04-30T05:36:55;9.70;;;8.70;;
3280;SDS011;1652;51.318;6.202;2023-04-30T05:39:22;10.67;;;8.87;;
3280;SDS011;1652;51.318;6.202;2023-04-30T05:41:49;17.13;;;9.57;;
3280;SDS011;1652;51.318;6.202;2023-04-30T05:44:18;10.53;;;9.30;;
3280;SDS011;1652;51.318;6.202;2023-04-30T05:46:45;11.57;;;10.40;;
3280;SDS011;1652;51.318;6.202;2023-04-30T05:49:12;10.10;;;9.17;;
3280;SDS011;1652;51.318;6.202;2023-04-30T05:51:39;12.40;;;9.57;;
3280;SDS011;1652;51.318;6.202;2023-04-30T05:54:06;10.00;;;9.10;;
3280;SDS011;1652;51.318;6.202;2023-04-30T05:56:32;10.93;;;8.50;;
3280;SDS011;1652;51.318;6.202;2023-04-30T05:58:59;9.73;;;8.90;;
3280;SDS011;1652;51.318;6.202;2023-04-30T06:01:26;9.80;;;8.77;;
3280;SDS011;1652;51.318;6.202;2023-04-30T06:03:54;11.67;;;9.20;;
3280;SDS011;1652;51.318;6.202;2023-04-30T06:06:21;11.73;;;10.10;;
3280;SDS011;1652;51.318;6.202;2023-04-30T06:08:48;10.90;;;9.90;;
3280;SDS011;1652;51.318;6.202;2023-04-30T06:11:15;11.33;;;10.23;;
3280;SDS011;1652;51.318;6.202;2023-04-30T06:13:42;12.07;;;10.37;;
3280;SDS011;1652;51.318;6.202;2023-04-30T06:16:09;11.40;;;10.00;;
3280;SDS011;1652;51.318;6.202;2023-04-30T06:18:36;11.93;;;10.10;;
3280;SDS011;1652;51.318;6.202;2023-04-30T06:21:03;12.80;;;9.70;;
3280;SDS011;1652;51.318;6.202;2023-04-30T06:23:29;17.60;;;10.10;;
3280;SDS011;1652;51.318;6.202;2023-04-30T06:25:56;12.73;;;10.30;;
3280;SDS011;1652;51.318;6.202;2023-04-30T06:28:23;14.97;;;9.47;;
3280;SDS011;1652;51.318;6.202;2023-04-30T06:30:50;11.60;;;10.27;;
3280;SDS011;1652;51.318;6.202;2023-04-30T06:33:19;11.43;;;10.10;;
3280;SDS011;1652;51.318;6.202;2023-04-30T06:35:46;11.00;;;9.90;;
3280;SDS011;1652;51.318;6.202;2023-04-30T06:38:13;13.60;;;9.77;;
3280;SDS011;1652;51.318;6.202;2023-04-30T06:40:40;10.90;;;9.80;;
3280;SDS011;1652;51.318;6.202;2023-04-30T06:43:07;15.40;;;10.00;;
3280;SDS011;1652;51.318;6.202;2023-04-30T06:45:34;10.90;;;9.40;;
3280;SDS011;1652;51.318;6.202;2023-04-30T06:48:01;11.57;;;9.57;;
3280;SDS011;1652;51.318;6.202;2023-04-30T06:50:28;15.33;;;10.40;;
3280;SDS011;1652;51.318;6.202;2023-04-30T06:52:54;11.57;;;9.80;;
3280;SDS011;1652;51.318;6.202;2023-04-30T06:55:21;10.63;;;9.37;;
3280;SDS011;1652;51.318;6.202;2023-04-30T06:57:49;11.37;;;10.20;;
3280;SDS011;1652;51.318;6.202;2023-04-30T07:00:16;11.23;;;10.00;;
3280;SDS011;1652;51.318;6.202;2023-04-30T07:02:43;10.80;;;9.70;;
3280;SDS011;1652;51.318;6.202;2023-04-30T07:05:13;13.43;;;11.03;;
3280;SDS011;1652;51.318;6.202;2023-04-30T07:07:40;11.53;;;10.43;;
3280;SDS011;1652;51.318;6.202;2023-04-30T07:10:07;11.30;;;10.10;;
3280;SDS011;1652;51.318;6.202;2023-04-30T07:12:34;13.60;;;9.47;;
3280;SDS011;1652;51.318;6.202;2023-04-30T07:15:01;12.13;;;10.50;;
3280;SDS011;1652;51.318;6.202;2023-04-30T07:17:28;10.50;;;9.50;;
3280;SDS011;1652;51.318;6.202;2023-04-30T07:19:55;12.60;;;11.10;;
3280;SDS011;1652;51.318;6.202;2023-04-30T07:22:22;11.93;;;10.43;;
3280;SDS011;1652;51.318;6.202;2023-04-30T07:24:49;16.43;;;9.97;;
3280;SDS011;1652;51.318;6.202;2023-04-30T07:27:16;11.47;;;10.03;;
3280;SDS011;1652;51.318;6.202;2023-04-30T07:29:43;11.43;;;10.03;;
3280;SDS011;1652;51.318;6.202;2023-04-30T07:32:10;11.40;;;10.40;;
3280;SDS011;1652;51.318;6.202;2023-04-30T07:34:37;11.90;;;10.70;;
3280;SDS011;1652;51.318;6.202;2023-04-30T07:37:04;17.40;;;10.60;;
3280;SDS011;1652;51.318;6.202;2023-04-30T07:39:31;12.33;;;9.93;;
3280;SDS011;1652;51.318;6.202;2023-04-30T07:41:58;13.60;;;10.60;;
3280;SDS011;1652;51.318;6.202;2023-04-30T07:44:25;12.10;;;11.00;;
3280;SDS011;1652;51.318;6.202;2023-04-30T07:46:52;20.17;;;12.43;;
3280;SDS011;1652;51.318;6.202;2023-04-30T07:49:19;15.53;;;11.97;;
3280;SDS011;1652;51.318;6.202;2023-04-30T07:51:46;12.90;;;11.60;;
3280;SDS011;1652;51.318;6.202;2023-04-30T07:54:13;14.53;;;11.67;;
3280;SDS011;1652;51.318;6.202;2023-04-30T07:56:40;13.60;;;12.20;;
3280;SDS011;1652;51.318;6.202;2023-04-30T07:59:08;18.90;;;12.33;;
3280;SDS011;1652;51.318;6.202;2023-04-30T08:01:34;12.77;;;10.90;;
3280;SDS011;1652;51.318;6.202;2023-04-30T08:04:01;14.90;;;11.03;;
3280;SDS011;1652;51.318;6.202;2023-04-30T08:06:28;11.73;;;10.30;;
3280;SDS011;1652;51.318;6.202;2023-04-30T08:08:55;14.23;;;10.50;;
3280;SDS011;1652;51.318;6.202;2023-04-30T08:11:22;11.70;;;10.50;;
3280;SDS011;1652;51.318;6.202;2023-04-30T08:13:49;11.80;;;10.63;;
3280;SDS011;1652;51.318;6.202;2023-04-30T08:16:16;12.33;;;11.10;;
3280;SDS011;1652;51.318;6.202;2023-04-30T08:18:43;13.80;;;10.23;;
3280;SDS011;1652;51.318;6.202;2023-04-30T08:21:12;15.27;;;12.20;;
3280;SDS011;1652;51.318;6.202;2023-04-30T08:23:39;11.70;;;10.40;;
3280;SDS011;1652;51.318;6.202;2023-04-30T08:26:06;12.10;;;9.60;;
3280;SDS011;1652;51.318;6.202;2023-04-30T08:28:33;16.23;;;10.50;;
3280;SDS011;1652;51.318;6.202;2023-04-30T08:30:59;15.87;;;10.70;;
3280;SDS011;1652;51.318;6.202;2023-04-30T08:33:26;13.27;;;9.93;;
3280;SDS011;1652;51.318;6.202;2023-04-30T08:35:53;13.60;;;10.33;;
3280;SDS011;1652;51.318;6.202;2023-04-30T08:38:20;11.67;;;9.80;;
3280;SDS011;1652;51.318;6.202;2023-04-30T08:43:51;10.47;;;9.40;;
3280;SDS011;1652;51.318;6.202;2023-04-30T08:46:19;13.03;;;8.63;;
3280;SDS011;1652;51.318;6.202;2023-04-30T08:48:48;9.50;;;8.53;;
3280;SDS011;1652;51.318;6.202;2023-04-30T08:51:15;11.30;;;10.10;;
3280;SDS011;1652;51.318;6.202;2023-04-30T08:53:42;10.90;;;9.63;;
3280;SDS011;1652;51.318;6.202;2023-04-30T08:56:10;7.93;;;7.10;;
3280;SDS011;1652;51.318;6.202;2023-04-30T08:58:38;14.67;;;9.43;;
3280;SDS011;1652;51.318;6.202;2023-04-30T09:01:06;17.10;;;9.90;;
3280;SDS011;1652;51.318;6.202;2023-04-30T09:03:34;12.17;;;8.93;;
3280;SDS011;1652;51.318;6.202;2023-04-30T09:06:02;6.10;;;5.50;;
3280;SDS011;1652;51.318;6.202;2023-04-30T09:08:39;9.73;;;6.17;;
3280;SDS011;1652;51.318;6.202;2023-04-30T09:11:24;7.70;;;6.90;;
3280;SDS011;1652;51.318;6.202;2023-04-30T09:13:58;8.90;;;8.03;;
3280;SDS011;1652;51.318;6.202;2023-04-30T09:16:26;9.93;;;8.57;;
3280;SDS011;1652;51.318;6.202;2023-04-30T09:19:24;9.03;;;7.27;;
3280;SDS011;1652;51.318;6.202;2023-04-30T09:21:52;7.43;;;6.70;;
3280;SDS011;1652;51.318;6.202;2023-04-30T09:24:20;12.47;;;7.77;;
3280;SDS011;1652;51.318;6.202;2023-04-30T09:26:47;7.60;;;6.87;;
3280;SDS011;1652;51.318;6.202;2023-04-30T09:29:14;9.73;;;8.00;;
3280;SDS011;1652;51.318;6.202;2023-04-30T09:31:42;15.53;;;8.47;;
3280;SDS011;1652;51.318;6.202;2023-04-30T09:34:12;7.97;;;7.17;;
3280;SDS011;1652;51.318;6.202;2023-04-30T09:36:51;9.83;;;8.40;;
3280;SDS011;1652;51.318;6.202;2023-04-30T09:39:20;9.17;;;8.03;;
3280;SDS011;1652;51.318;6.202;2023-04-30T09:41:47;8.20;;;7.40;;
3280;SDS011;1652;51.318;6.202;2023-04-30T09:44:30;7.37;;;6.67;;
3280;SDS011;1652;51.318;6.202;2023-04-30T09:47:01;9.20;;;7.00;;
3280;SDS011;1652;51.318;6.202;2023-04-30T09:49:29;10.83;;;5.50;;
3280;SDS011;1652;51.318;6.202;2023-04-30T09:51:56;6.00;;;5.57;;
3280;SDS011;1652;51.318;6.202;2023-04-30T09:54:24;6.53;;;5.80;;
3280;SDS011;1652;51.318;6.202;2023-04-30T09:56:57;6.43;;;6.00;;
3280;SDS011;1652;51.318;6.202;2023-04-30T09:59:28;5.60;;;5.30;;
3280;SDS011;1652;51.318;6.202;2023-04-30T10:01:57;6.80;;;6.37;;
3280;SDS011;1652;51.318;6.202;2023-04-30T10:04:30;7.53;;;7.00;;
3280;SDS011;1652;51.318;6.202;2023-04-30T10:07:05;6.93;;;6.23;;
3280;SDS011;1652;51.318;6.202;2023-04-30T10:09:50;5.73;;;5.23;;
3280;SDS011;1652;51.318;6.202;2023-04-30T10:12:43;5.40;;;5.00;;
3280;SDS011;1652;51.318;6.202;2023-04-30T10:15:25;5.93;;;5.53;;
3280;SDS011;1652;51.318;6.202;2023-04-30T10:18:06;5.67;;;5.03;;
3280;SDS011;1652;51.318;6.202;2023-04-30T10:20:37;3.73;;;3.57;;
3280;SDS011;1652;51.318;6.202;2023-04-30T10:23:05;3.40;;;3.30;;
3280;SDS011;1652;51.318;6.202;2023-04-30T10:25:33;3.00;;;2.80;;
3280;SDS011;1652;51.318;6.202;2023-04-30T10:28:03;3.73;;;3.53;;
3280;SDS011;1652;51.318;6.202;2023-04-30T10:30:31;5.03;;;4.70;;
3280;SDS011;1652;51.318;6.202;2023-04-30T10:33:05;5.20;;;4.87;;
3280;SDS011;1652;51.318;6.202;2023-04-30T10:35:46;3.43;;;3.13;;
3280;SDS011;1652;51.318;6.202;2023-04-30T10:38:22;3.80;;;3.50;;
3280;SDS011;1652;51.318;6.202;2023-04-30T10:40:55;3.10;;;2.90;;
3280;SDS011;1652;51.318;6.202;2023-04-30T10:43:24;4.10;;;3.70;;
3280;SDS011;1652;51.318;6.202;2023-04-30T10:45:51;5.20;;;4.80;;
3280;SDS011;1652;51.318;6.202;2023-04-30T10:48:21;5.70;;;5.30;;
3280;SDS011;1652;51.318;6.202;2023-04-30T10:50:56;6.40;;;5.90;;
3280;SDS011;1652;51.318;6.202;2023-04-30T10:53:24;5.80;;;5.40;;
3280;SDS011;1652;51.318;6.202;2023-04-30T10:56:03;7.00;;;6.40;;
3280;SDS011;1652;51.318;6.202;2023-04-30T10:58:33;7.43;;;5.83;;
3280;SDS011;1652;51.318;6.202;2023-04-30T11:03:34;8.20;;;6.07;;
3280;SDS011;1652;51.318;6.202;2023-04-30T11:06:14;7.27;;;5.40;;
3280;SDS011;1652;51.318;6.202;2023-04-30T11:08:45;7.07;;;6.50;;
3280;SDS011;1652;51.318;6.202;2023-04-30T11:17:21;13.47;;;6.57;;
3280;SDS011;1652;51.318;6.202;2023-04-30T11:19:51;7.23;;;6.63;;
3280;SDS011;1652;51.318;6.202;2023-04-30T11:24:50;8.00;;;6.43;;
3280;SDS011;1652;51.318;6.202;2023-04-30T11:27:35;8.13;;;7.43;;
3280;SDS011;1652;51.318;6.202;2023-04-30T11:30:08;10.13;;;5.93;;
3280;SDS011;1652;51.318;6.202;2023-04-30T11:32:38;5.77;;;5.33;;
3280;SDS011;1652;51.318;6.202;2023-04-30T11:35:05;6.30;;;5.80;;
3280;SDS011;1652;51.318;6.202;2023-04-30T11:37:39;7.10;;;6.10;;
3280;SDS011;1652;51.318;6.202;2023-04-30T11:40:11;7.20;;;5.90;;
3280;SDS011;1652;51.318;6.202;2023-04-30T11:42:39;8.40;;;6.97;;
3280;SDS011;1652;51.318;6.202;2023-04-30T11:45:13;6.67;;;6.00;;
3280;SDS011;1652;51.318;6.202;2023-04-30T11:50:12;6.90;;;6.43;;
3280;SDS011;1652;51.318;6.202;2023-04-30T11:52:41;6.77;;;6.17;;
3280;SDS011;1652;51.318;6.202;2023-04-30T11:55:15;5.87;;;5.30;;
3280;SDS011;1652;51.318;6.202;2023-04-30T11:57:44;4.97;;;4.77;;
3280;SDS011;1652;51.318;6.202;2023-04-30T12:00:13;5.57;;;5.13;;
3280;SDS011;1652;51.318;6.202;2023-04-30T12:02:42;4.40;;;4.10;;
3280;SDS011;1652;51.318;6.202;2023-04-30T12:07:46;12.90;;;4.60;;
3280;SDS011;1652;51.318;6.202;2023-04-30T12:10:13;5.80;;;5.20;;
3280;SDS011;1652;51.318;6.202;2023-04-30T12:12:43;5.20;;;4.63;;
3280;SDS011;1652;51.318;6.202;2023-04-30T12:15:14;5.07;;;4.60;;
3280;SDS011;1652;51.318;6.202;2023-04-30T12:17:43;8.40;;;4.70;;
3280;SDS011;1652;51.318;6.202;2023-04-30T12:20:12;4.50;;;4.00;;
3280;SDS011;1652;51.318;6.202;2023-04-30T12:22:41;9.20;;;4.70;;
3280;SDS011;1652;51.318;6.202;2023-04-30T12:25:12;5.37;;;5.07;;
3280;SDS011;1652;51.318;6.202;2023-04-30T12:27:41;6.60;;;6.00;;
3280;SDS011;1652;51.318;6.202;2023-04-30T12:30:10;5.97;;;5.43;;
3280;SDS011;1652;51.318;6.202;2023-04-30T12:35:06;4.57;;;4.17;;
3280;SDS011;1652;51.318;6.202;2023-04-30T12:37:34;4.20;;;3.90;;
3280;SDS011;1652;51.318;6.202;2023-04-30T12:40:01;4.97;;;4.67;;
3280;SDS011;1652;51.318;6.202;2023-04-30T12:42:31;5.60;;;5.20;;
3280;SDS011;1652;51.318;6.202;2023-04-30T12:44:59;5.80;;;5.30;;
3280;SDS011;1652;51.318;6.202;2023-04-30T12:47:28;5.97;;;5.23;;
3280;SDS011;1652;51.318;6.202;2023-04-30T12:49:55;5.00;;;4.80;;
3280;SDS011;1652;51.318;6.202;2023-04-30T12:52:23;5.20;;;4.80;;
3280;SDS011;1652;51.318;6.202;2023-04-30T12:54:51;5.27;;;4.87;;
3280;SDS011;1652;51.318;6.202;2023-04-30T12:57:19;5.47;;;5.27;;
3280;SDS011;1652;51.318;6.202;2023-04-30T13:02:27;6.73;;;6.23;;
3280;SDS011;1652;51.318;6.202;2023-04-30T13:04:54;6.53;;;6.23;;
3280;SDS011;1652;51.318;6.202;2023-04-30T13:07:22;5.27;;;4.97;;
3280;SDS011;1652;51.318;6.202;2023-04-30T13:09:49;5.60;;;5.20;;
3280;SDS011;1652;51.318;6.202;2023-04-30T13:12:16;4.70;;;4.40;;
3280;SDS011;1652;51.318;6.202;2023-04-30T13:14:44;4.70;;;4.30;;
3280;SDS011;1652;51.318;6.202;2023-04-30T13:17:11;4.13;;;4.03;;
3280;SDS011;1652;51.318;6.202;2023-04-30T13:19:39;3.67;;;3.57;;
3280;SDS011;1652;51.318;6.202;2023-04-30T13:22:07;3.83;;;3.60;;
3280;SDS011;1652;51.318;6.202;2023-04-30T13:24:34;4.67;;;4.37;;
3280;SDS011;1652;51.318;6.202;2023-04-30T13:27:01;3.50;;;3.40;;
3280;SDS011;1652;51.318;6.202;2023-04-30T13:29:29;3.57;;;3.37;;
3280;SDS011;1652;51.318;6.202;2023-04-30T13:31:57;4.87;;;4.17;;
3280;SDS011;1652;51.318;6.202;2023-04-30T13:34:24;4.47;;;4.17;;
3280;SDS011;1652;51.318;6.202;2023-04-30T13:36:51;4.50;;;4.10;;
3280;SDS011;1652;51.318;6.202;2023-04-30T13:39:19;3.83;;;3.63;;
3280;SDS011;1652;51.318;6.202;2023-04-30T13:41:47;3.90;;;3.60;;
3280;SDS011;1652;51.318;6.202;2023-04-30T13:44:14;3.63;;;3.17;;
3280;SDS011;1652;51.318;6.202;2023-04-30T13:46:42;3.00;;;2.90;;
3280;SDS011;1652;51.318;6.202;2023-04-30T13:49:09;3.30;;;3.10;;
3280;SDS011;1652;51.318;6.202;2023-04-30T13:51:36;3.23;;;3.03;;
3280;SDS011;1652;51.318;6.202;2023-04-30T13:54:03;2.67;;;2.47;;
3280;SDS011;1652;51.318;6.202;2023-04-30T13:56:30;2.80;;;2.70;;
3280;SDS011;1652;51.318;6.202;2023-04-30T13:58:57;4.40;;;2.80;;
3280;SDS011;1652;51.318;6.202;2023-04-30T14:01:24;2.50;;;2.40;;
3280;SDS011;1652;51.318;6.202;2023-04-30T14:03:51;3.17;;;3.00;;
3280;SDS011;1652;51.318;6.202;2023-04-30T14:06:18;3.73;;;3.43;;
3280;SDS011;1652;51.318;6.202;2023-04-30T14:08:45;2.53;;;2.43;;
3280;SDS011;1652;51.318;6.202;2023-04-30T14:11:12;2.50;;;2.40;;
3280;SDS011;1652;51.318;6.202;2023-04-30T14:13:39;2.63;;;2.53;;
3280;SDS011;1652;51.318;6.202;2023-04-30T14:16:06;5.57;;;2.73;;
3280;SDS011;1652;51.318;6.202;2023-04-30T14:18:34;2.50;;;2.40;;
3280;SDS011;1652;51.318;6.202;2023-04-30T14:21:01;2.77;;;2.57;;
3280;SDS011;1652;51.318;6.202;2023-04-30T14:23:27;2.63;;;2.43;;
3280;SDS011;1652;51.318;6.202;2023-04-30T14:25:54;2.10;;;2.00;;
3280;SDS011;1652;51.318;6.202;2023-04-30T14:28:21;3.07;;;2.87;;
3280;SDS011;1652;51.318;6.202;2023-04-30T14:30:49;2.20;;;2.10;;
3280;SDS011;1652;51.318;6.202;2023-04-30T14:33:15;2.40;;;2.20;;
3280;SDS011;1652;51.318;6.202;2023-04-30T14:35:42;2.57;;;2.47;;
3280;SDS011;1652;51.318;6.202;2023-04-30T14:38:10;3.10;;;3.00;;
3280;SDS011;1652;51.318;6.202;2023-04-30T14:40:37;2.90;;;2.80;;
3280;SDS011;1652;51.318;6.202;2023-04-30T14:43:04;3.60;;;3.40;;
3280;SDS011;1652;51.318;6.202;2023-04-30T14:45:31;1.80;;;1.70;;
3280;SDS011;1652;51.318;6.202;2023-04-30T14:47:59;1.77;;;1.67;;
3280;SDS011;1652;51.318;6.202;2023-04-30T14:50:30;1.90;;;1.80;;
3280;SDS011;1652;51.318;6.202;2023-04-30T14:52:57;2.00;;;1.90;;
3280;SDS011;1652;51.318;6.202;2023-04-30T14:55:24;2.47;;;2.37;;
3280;SDS011;1652;51.318;6.202;2023-04-30T14:57:51;2.40;;;2.20;;
3280;SDS011;1652;51.318;6.202;2023-04-30T15:00:18;1.73;;;1.63;;
3280;SDS011;1652;51.318;6.202;2023-04-30T15:02:45;2.40;;;2.13;;
3280;SDS011;1652;51.318;6.202;2023-04-30T15:05:13;2.40;;;2.30;;
3280;SDS011;1652;51.318;6.202;2023-04-30T15:07:40;2.20;;;2.10;;
3280;SDS011;1652;51.318;6.202;2023-04-30T15:10:07;4.60;;;2.37;;
3280;SDS011;1652;51.318;6.202;2023-04-30T15:12:34;2.27;;;2.17;;
3280;SDS011;1652;51.318;6.202;2023-04-30T15:20:32;2.00;;;1.90;;
3280;SDS011;1652;51.318;6.202;2023-04-30T15:22:59;2.47;;;2.27;;
3280;SDS011;1652;51.318;6.202;2023-04-30T15:25:26;1.83;;;1.73;;
3280;SDS011;1652;51.318;6.202;2023-04-30T15:27:53;2.20;;;2.00;;
3280;SDS011;1652;51.318;6.202;2023-04-30T15:30:20;2.13;;;2.03;;
3280;SDS011;1652;51.318;6.202;2023-04-30T15:32:47;1.90;;;1.80;;
3280;SDS011;1652;51.318;6.202;2023-04-30T15:35:15;2.70;;;1.90;;
3280;SDS011;1652;51.318;6.202;2023-04-30T15:37:43;2.47;;;2.17;;
3280;SDS011;1652;51.318;6.202;2023-04-30T15:40:10;2.57;;;2.47;;
3280;SDS011;1652;51.318;6.202;2023-04-30T15:42:40;8.33;;;2.83;;
3280;SDS011;1652;51.318;6.202;2023-04-30T15:45:07;3.37;;;3.17;;
3280;SDS011;1652;51.318;6.202;2023-04-30T15:47:36;2.20;;;2.10;;
3280;SDS011;1652;51.318;6.202;2023-04-30T15:50:04;2.27;;;2.07;;
3280;SDS011;1652;51.318;6.202;2023-04-30T15:52:31;2.70;;;2.50;;
3280;SDS011;1652;51.318;6.202;2023-04-30T15:54:58;2.77;;;2.67;;
3280;SDS011;1652;51.318;6.202;2023-04-30T15:57:25;2.93;;;2.73;;
3280;SDS011;1652;51.318;6.202;2023-04-30T15:59:52;2.53;;;2.27;;
3280;SDS011;1652;51.318;6.202;2023-04-30T16:02:20;2.80;;;2.60;;
3280;SDS011;1652;51.318;6.202;2023-04-30T16:04:47;2.00;;;1.90;;
3280;SDS011;1652;51.318;6.202;2023-04-30T16:07:14;2.07;;;1.97;;
3280;SDS011;1652;51.318;6.202;2023-04-30T16:09:41;3.17;;;2.57;;
3280;SDS011;1652;51.318;6.202;2023-04-30T16:12:11;1.73;;;1.63;;